sensor_id;sensor_type;location;lat;lon;timestamp;temperature;humidity
52973;DHT22;38837;48.916;2.336;2023-08-12T00:01:48;25.00;63.10
52973;DHT22;38837;48.916;2.336;2023-08-12T00:03:50;24.90;63.10
52973;DHT22;38837;48.916;2.336;2023-08-12T00:05:52;24.90;63.10
52973;DHT22;38837;48.916;2.336;2023-08-12T00:07:54;25.00;63.70
52973;DHT22;38837;48.916;2.336;2023-08-12T00:09:56;25.00;63.20
52973;DHT22;38837;48.916;2.336;2023-08-12T00:11:58;25.00;63.10
52973;DHT22;38837;48.916;2.336;2023-08-12T00:14:00;24.90;63.10
52973;DHT22;38837;48.916;2.336;2023-08-12T00:16:02;24.90;63.10
52973;DHT22;38837;48.916;2.336;2023-08-12T00:18:04;24.90;63.10
52973;DHT22;38837;48.916;2.336;2023-08-12T00:20:09;24.90;63.10
52973;DHT22;38837;48.916;2.336;2023-08-12T00:22:12;24.90;63.10
52973;DHT22;38837;48.916;2.336;2023-08-12T00:24:14;24.90;63.10
52973;DHT22;38837;48.916;2.336;2023-08-12T00:26:16;24.90;63.10
52973;DHT22;38837;48.916;2.336;2023-08-12T00:28:18;24.90;63.20
52973;DHT22;38837;48.916;2.336;2023-08-12T00:30:20;24.90;63.10
52973;DHT22;38837;48.916;2.336;2023-08-12T00:32:22;24.90;63.20
52973;DHT22;38837;48.916;2.336;2023-08-12T00:34:24;24.90;63.20
52973;DHT22;38837;48.916;2.336;2023-08-12T00:36:26;24.90;63.10
52973;DHT22;38837;48.916;2.336;2023-08-12T00:38:28;24.90;63.10
52973;DHT22;38837;48.916;2.336;2023-08-12T00:40:30;24.90;63.20
52973;DHT22;38837;48.916;2.336;2023-08-12T00:42:32;24.90;63.20
52973;DHT22;38837;48.916;2.336;2023-08-12T00:44:34;24.90;63.20
52973;DHT22;38837;48.916;2.336;2023-08-12T00:46:38;24.90;63.20
52973;DHT22;38837;48.916;2.336;2023-08-12T00:48:40;24.90;63.20
52973;DHT22;38837;48.916;2.336;2023-08-12T00:50:42;24.90;63.20
52973;DHT22;38837;48.916;2.336;2023-08-12T00:52:44;24.90;63.30
52973;DHT22;38837;48.916;2.336;2023-08-12T00:54:46;24.90;63.30
52973;DHT22;38837;48.916;2.336;2023-08-12T00:56:52;24.80;63.20
52973;DHT22;38837;48.916;2.336;2023-08-12T00:58:55;24.80;63.30
52973;DHT22;38837;48.916;2.336;2023-08-12T01:00:57;24.80;63.30
52973;DHT22;38837;48.916;2.336;2023-08-12T01:03:00;24.80;63.30
52973;DHT22;38837;48.916;2.336;2023-08-12T01:05:03;24.80;63.30
52973;DHT22;38837;48.916;2.336;2023-08-12T01:07:05;24.80;63.30
52973;DHT22;38837;48.916;2.336;2023-08-12T01:09:07;24.80;63.30
52973;DHT22;38837;48.916;2.336;2023-08-12T01:11:21;24.80;63.30
52973;DHT22;38837;48.916;2.336;2023-08-12T01:14:22;24.80;63.30
52973;DHT22;38837;48.916;2.336;2023-08-12T01:15:58;24.80;63.30
52973;DHT22;38837;48.916;2.336;2023-08-12T01:18:03;24.80;63.30
52973;DHT22;38837;48.916;2.336;2023-08-12T01:20:08;24.80;63.40
52973;DHT22;38837;48.916;2.336;2023-08-12T01:22:11;24.80;63.30
52973;DHT22;38837;48.916;2.336;2023-08-12T01:24:13;24.80;63.30
52973;DHT22;38837;48.916;2.336;2023-08-12T01:26:15;24.80;63.30
52973;DHT22;38837;48.916;2.336;2023-08-12T01:28:17;24.80;63.40
52973;DHT22;38837;48.916;2.336;2023-08-12T01:30:20;24.80;63.40
52973;DHT22;38837;48.916;2.336;2023-08-12T01:32:34;24.80;63.40
52973;DHT22;38837;48.916;2.336;2023-08-12T01:34:40;24.80;63.40
52973;DHT22;38837;48.916;2.336;2023-08-12T01:36:46;24.80;63.40
52973;DHT22;38837;48.916;2.336;2023-08-12T01:38:55;24.80;63.50
52973;DHT22;38837;48.916;2.336;2023-08-12T01:40:59;24.80;63.50
52973;DHT22;38837;48.916;2.336;2023-08-12T01:43:02;24.80;63.50
52973;DHT22;38837;48.916;2.336;2023-08-12T01:45:05;24.80;63.40
52973;DHT22;38837;48.916;2.336;2023-08-12T01:47:09;24.80;63.40
52973;DHT22;38837;48.916;2.336;2023-08-12T01:49:11;24.70;63.40
52973;DHT22;38837;48.916;2.336;2023-08-12T01:51:13;24.80;63.50
52973;DHT22;38837;48.916;2.336;2023-08-12T01:53:15;24.70;63.40
52973;DHT22;38837;48.916;2.336;2023-08-12T01:55:17;24.70;63.40
52973;DHT22;38837;48.916;2.336;2023-08-12T01:57:19;24.70;63.50
52973;DHT22;38837;48.916;2.336;2023-08-12T01:59:21;24.70;63.50
52973;DHT22;38837;48.916;2.336;2023-08-12T02:01:23;24.70;63.50
52973;DHT22;38837;48.916;2.336;2023-08-12T02:03:25;24.70;63.50
52973;DHT22;38837;48.916;2.336;2023-08-12T02:05:27;24.70;63.50
52973;DHT22;38837;48.916;2.336;2023-08-12T02:07:29;24.70;63.50
52973;DHT22;38837;48.916;2.336;2023-08-12T02:09:31;24.70;63.50
52973;DHT22;38837;48.916;2.336;2023-08-12T02:11:33;24.70;63.50
52973;DHT22;38837;48.916;2.336;2023-08-12T02:13:35;24.70;63.50
52973;DHT22;38837;48.916;2.336;2023-08-12T02:15:37;24.70;63.50
52973;DHT22;38837;48.916;2.336;2023-08-12T02:17:39;24.70;63.50
52973;DHT22;38837;48.916;2.336;2023-08-12T02:19:41;24.70;63.50
52973;DHT22;38837;48.916;2.336;2023-08-12T02:21:43;24.70;63.50
52973;DHT22;38837;48.916;2.336;2023-08-12T02:23:45;24.70;63.50
52973;DHT22;38837;48.916;2.336;2023-08-12T02:25:47;24.70;63.60
52973;DHT22;38837;48.916;2.336;2023-08-12T02:27:49;24.70;63.50
52973;DHT22;38837;48.916;2.336;2023-08-12T02:29:51;24.70;63.50
52973;DHT22;38837;48.916;2.336;2023-08-12T02:31:53;24.70;63.60
52973;DHT22;38837;48.916;2.336;2023-08-12T02:33:54;24.70;63.60
52973;DHT22;38837;48.916;2.336;2023-08-12T02:35:56;24.70;63.60
52973;DHT22;38837;48.916;2.336;2023-08-12T02:37:58;24.70;63.60
52973;DHT22;38837;48.916;2.336;2023-08-12T02:40:00;24.70;63.70
52973;DHT22;38837;48.916;2.336;2023-08-12T02:42:06;24.60;63.50
52973;DHT22;38837;48.916;2.336;2023-08-12T02:44:08;24.60;63.60
52973;DHT22;38837;48.916;2.336;2023-08-12T02:46:10;24.70;63.60
52973;DHT22;38837;48.916;2.336;2023-08-12T02:48:12;24.60;63.60
52973;DHT22;38837;48.916;2.336;2023-08-12T02:50:14;24.60;63.60
52973;DHT22;38837;48.916;2.336;2023-08-12T02:52:16;24.60;63.70
52973;DHT22;38837;48.916;2.336;2023-08-12T02:54:18;24.60;63.70
52973;DHT22;38837;48.916;2.336;2023-08-12T02:56:20;24.60;63.70
52973;DHT22;38837;48.916;2.336;2023-08-12T02:58:22;24.60;63.60
52973;DHT22;38837;48.916;2.336;2023-08-12T03:00:24;24.60;63.70
52973;DHT22;38837;48.916;2.336;2023-08-12T03:02:26;24.60;63.70
52973;DHT22;38837;48.916;2.336;2023-08-12T03:04:28;24.60;63.70
52973;DHT22;38837;48.916;2.336;2023-08-12T03:06:30;24.60;63.70
52973;DHT22;38837;48.916;2.336;2023-08-12T03:08:32;24.60;63.70
52973;DHT22;38837;48.916;2.336;2023-08-12T03:10:34;24.60;63.70
52973;DHT22;38837;48.916;2.336;2023-08-12T03:12:36;24.60;63.70
52973;DHT22;38837;48.916;2.336;2023-08-12T03:14:38;24.60;63.70
52973;DHT22;38837;48.916;2.336;2023-08-12T03:16:40;24.60;63.70
52973;DHT22;38837;48.916;2.336;2023-08-12T03:18:42;24.60;63.80
52973;DHT22;38837;48.916;2.336;2023-08-12T03:20:44;24.60;63.70
52973;DHT22;38837;48.916;2.336;2023-08-12T03:22:45;24.60;63.80
52973;DHT22;38837;48.916;2.336;2023-08-12T03:24:48;24.60;63.80
52973;DHT22;38837;48.916;2.336;2023-08-12T03:26:50;24.60;63.80
52973;DHT22;38837;48.916;2.336;2023-08-12T03:28:52;24.60;63.80
52973;DHT22;38837;48.916;2.336;2023-08-12T03:30:54;24.60;63.80
52973;DHT22;38837;48.916;2.336;2023-08-12T03:32:56;24.60;63.80
52973;DHT22;38837;48.916;2.336;2023-08-12T03:34:58;24.60;63.80
52973;DHT22;38837;48.916;2.336;2023-08-12T03:37:00;24.60;63.90
52973;DHT22;38837;48.916;2.336;2023-08-12T03:39:02;24.60;63.80
52973;DHT22;38837;48.916;2.336;2023-08-12T03:41:04;24.60;63.90
52973;DHT22;38837;48.916;2.336;2023-08-12T03:43:06;24.50;63.90
52973;DHT22;38837;48.916;2.336;2023-08-12T03:45:08;24.60;63.90
52973;DHT22;38837;48.916;2.336;2023-08-12T03:47:10;24.60;64.00
52973;DHT22;38837;48.916;2.336;2023-08-12T03:49:13;24.50;63.90
52973;DHT22;38837;48.916;2.336;2023-08-12T03:51:14;24.50;63.90
52973;DHT22;38837;48.916;2.336;2023-08-12T03:53:16;24.60;64.00
52973;DHT22;38837;48.916;2.336;2023-08-12T03:55:19;24.50;63.90
52973;DHT22;38837;48.916;2.336;2023-08-12T03:57:21;24.60;64.00
52973;DHT22;38837;48.916;2.336;2023-08-12T03:59:22;24.50;63.90
52973;DHT22;38837;48.916;2.336;2023-08-12T04:01:24;24.50;63.90
52973;DHT22;38837;48.916;2.336;2023-08-12T04:03:26;24.50;63.90
52973;DHT22;38837;48.916;2.336;2023-08-12T04:05:28;24.50;63.90
52973;DHT22;38837;48.916;2.336;2023-08-12T04:07:31;24.50;64.00
52973;DHT22;38837;48.916;2.336;2023-08-12T04:09:33;24.50;63.90
52973;DHT22;38837;48.916;2.336;2023-08-12T04:11:35;24.50;63.90
52973;DHT22;38837;48.916;2.336;2023-08-12T04:13:37;24.50;63.90
52973;DHT22;38837;48.916;2.336;2023-08-12T04:15:39;24.50;64.00
52973;DHT22;38837;48.916;2.336;2023-08-12T04:17:41;24.50;64.00
52973;DHT22;38837;48.916;2.336;2023-08-12T04:19:43;24.50;64.00
52973;DHT22;38837;48.916;2.336;2023-08-12T04:21:45;24.50;64.10
52973;DHT22;38837;48.916;2.336;2023-08-12T04:23:48;24.50;64.10
52973;DHT22;38837;48.916;2.336;2023-08-12T04:25:51;24.50;64.10
52973;DHT22;38837;48.916;2.336;2023-08-12T04:27:54;24.50;64.10
52973;DHT22;38837;48.916;2.336;2023-08-12T04:29:56;24.50;64.10
52973;DHT22;38837;48.916;2.336;2023-08-12T04:31:57;24.50;64.10
52973;DHT22;38837;48.916;2.336;2023-08-12T04:33:59;24.50;64.10
52973;DHT22;38837;48.916;2.336;2023-08-12T04:36:01;24.50;64.20
52973;DHT22;38837;48.916;2.336;2023-08-12T04:38:03;24.50;64.10
52973;DHT22;38837;48.916;2.336;2023-08-12T04:40:06;24.50;64.20
52973;DHT22;38837;48.916;2.336;2023-08-12T04:42:09;24.50;64.10
52973;DHT22;38837;48.916;2.336;2023-08-12T04:44:10;24.50;64.10
52973;DHT22;38837;48.916;2.336;2023-08-12T04:46:12;24.50;64.10
52973;DHT22;38837;48.916;2.336;2023-08-12T04:48:15;24.50;64.20
52973;DHT22;38837;48.916;2.336;2023-08-12T04:50:17;24.50;64.20
52973;DHT22;38837;48.916;2.336;2023-08-12T04:52:20;24.50;64.10
52973;DHT22;38837;48.916;2.336;2023-08-12T04:54:22;24.50;64.20
52973;DHT22;38837;48.916;2.336;2023-08-12T04:56:24;24.40;64.70
52973;DHT22;38837;48.916;2.336;2023-08-12T04:58:26;24.50;64.20
52973;DHT22;38837;48.916;2.336;2023-08-12T05:00:28;24.50;64.20
52973;DHT22;38837;48.916;2.336;2023-08-12T05:02:32;24.50;64.50
52973;DHT22;38837;48.916;2.336;2023-08-12T05:04:34;24.50;64.30
52973;DHT22;38837;48.916;2.336;2023-08-12T05:06:36;24.40;64.20
52973;DHT22;38837;48.916;2.336;2023-08-12T05:08:37;24.50;64.30
52973;DHT22;38837;48.916;2.336;2023-08-12T05:10:39;24.40;64.20
52973;DHT22;38837;48.916;2.336;2023-08-12T05:12:42;24.40;64.20
52973;DHT22;38837;48.916;2.336;2023-08-12T05:14:44;24.40;64.30
52973;DHT22;38837;48.916;2.336;2023-08-12T05:16:46;24.40;64.30
52973;DHT22;38837;48.916;2.336;2023-08-12T05:18:48;24.40;64.30
52973;DHT22;38837;48.916;2.336;2023-08-12T05:20:51;24.40;64.30
52973;DHT22;38837;48.916;2.336;2023-08-12T05:22:53;24.40;64.30
52973;DHT22;38837;48.916;2.336;2023-08-12T05:24:55;24.40;64.30
52973;DHT22;38837;48.916;2.336;2023-08-12T05:26:57;24.40;64.30
52973;DHT22;38837;48.916;2.336;2023-08-12T05:28:59;24.40;64.40
52973;DHT22;38837;48.916;2.336;2023-08-12T05:31:01;24.40;64.30
52973;DHT22;38837;48.916;2.336;2023-08-12T05:33:03;24.40;64.40
52973;DHT22;38837;48.916;2.336;2023-08-12T05:35:06;24.40;64.30
52973;DHT22;38837;48.916;2.336;2023-08-12T05:37:08;24.40;64.30
52973;DHT22;38837;48.916;2.336;2023-08-12T05:39:10;24.40;64.40
52973;DHT22;38837;48.916;2.336;2023-08-12T05:41:12;24.40;64.40
52973;DHT22;38837;48.916;2.336;2023-08-12T05:43:14;24.40;64.40
52973;DHT22;38837;48.916;2.336;2023-08-12T05:45:16;24.40;64.40
52973;DHT22;38837;48.916;2.336;2023-08-12T05:47:18;24.40;64.40
52973;DHT22;38837;48.916;2.336;2023-08-12T05:49:20;24.40;64.40
52973;DHT22;38837;48.916;2.336;2023-08-12T05:51:22;24.40;64.40
52973;DHT22;38837;48.916;2.336;2023-08-12T05:53:24;24.40;64.50
52973;DHT22;38837;48.916;2.336;2023-08-12T05:55:25;24.40;64.40
52973;DHT22;38837;48.916;2.336;2023-08-12T05:57:28;24.40;64.40
52973;DHT22;38837;48.916;2.336;2023-08-12T05:59:30;24.40;64.50
52973;DHT22;38837;48.916;2.336;2023-08-12T06:01:32;24.40;64.40
52973;DHT22;38837;48.916;2.336;2023-08-12T06:03:34;24.40;64.40
52973;DHT22;38837;48.916;2.336;2023-08-12T06:05:36;24.40;64.40
52973;DHT22;38837;48.916;2.336;2023-08-12T06:07:38;24.40;64.40
52973;DHT22;38837;48.916;2.336;2023-08-12T06:09:40;24.40;64.40
52973;DHT22;38837;48.916;2.336;2023-08-12T06:11:42;24.40;64.40
52973;DHT22;38837;48.916;2.336;2023-08-12T06:13:44;24.40;64.40
52973;DHT22;38837;48.916;2.336;2023-08-12T06:15:45;24.40;64.40
52973;DHT22;38837;48.916;2.336;2023-08-12T06:17:48;24.40;64.40
52973;DHT22;38837;48.916;2.336;2023-08-12T06:19:50;24.40;64.40
52973;DHT22;38837;48.916;2.336;2023-08-12T06:21:52;24.40;64.40
52973;DHT22;38837;48.916;2.336;2023-08-12T06:23:53;24.40;64.40
52973;DHT22;38837;48.916;2.336;2023-08-12T06:25:55;24.40;64.50
52973;DHT22;38837;48.916;2.336;2023-08-12T06:27:57;24.40;64.50
52973;DHT22;38837;48.916;2.336;2023-08-12T06:30:00;24.40;64.50
52973;DHT22;38837;48.916;2.336;2023-08-12T06:32:02;24.40;64.50
52973;DHT22;38837;48.916;2.336;2023-08-12T06:34:04;24.40;64.50
52973;DHT22;38837;48.916;2.336;2023-08-12T06:36:06;24.30;64.50
52973;DHT22;38837;48.916;2.336;2023-08-12T06:38:08;24.30;64.50
52973;DHT22;38837;48.916;2.336;2023-08-12T06:40:11;24.40;64.50
52973;DHT22;38837;48.916;2.336;2023-08-12T06:42:13;24.30;64.50
52973;DHT22;38837;48.916;2.336;2023-08-12T06:44:15;24.30;64.50
52973;DHT22;38837;48.916;2.336;2023-08-12T06:46:17;24.30;64.60
52973;DHT22;38837;48.916;2.336;2023-08-12T06:48:19;24.30;64.50
52973;DHT22;38837;48.916;2.336;2023-08-12T06:50:21;24.30;64.50
52973;DHT22;38837;48.916;2.336;2023-08-12T06:52:23;24.30;64.50
52973;DHT22;38837;48.916;2.336;2023-08-12T06:54:25;24.30;64.50
52973;DHT22;38837;48.916;2.336;2023-08-12T06:56:27;24.40;64.60
52973;DHT22;38837;48.916;2.336;2023-08-12T06:58:29;24.30;64.50
52973;DHT22;38837;48.916;2.336;2023-08-12T07:00:31;24.30;64.40
52973;DHT22;38837;48.916;2.336;2023-08-12T07:02:33;24.40;64.50
52973;DHT22;38837;48.916;2.336;2023-08-12T07:04:35;24.30;64.60
52973;DHT22;38837;48.916;2.336;2023-08-12T07:06:37;24.30;64.50
52973;DHT22;38837;48.916;2.336;2023-08-12T07:08:38;24.30;64.60
52973;DHT22;38837;48.916;2.336;2023-08-12T07:10:41;24.30;64.60
52973;DHT22;38837;48.916;2.336;2023-08-12T07:12:43;24.30;64.70
52973;DHT22;38837;48.916;2.336;2023-08-12T07:14:45;24.30;64.70
52973;DHT22;38837;48.916;2.336;2023-08-12T07:16:46;24.30;64.70
52973;DHT22;38837;48.916;2.336;2023-08-12T07:18:48;24.30;64.80
52973;DHT22;38837;48.916;2.336;2023-08-12T07:20:50;24.30;64.70
52973;DHT22;38837;48.916;2.336;2023-08-12T07:22:52;24.30;64.80
52973;DHT22;38837;48.916;2.336;2023-08-12T07:24:54;24.30;64.80
52973;DHT22;38837;48.916;2.336;2023-08-12T07:26:57;24.30;64.70
52973;DHT22;38837;48.916;2.336;2023-08-12T07:28:58;24.30;64.70
52973;DHT22;38837;48.916;2.336;2023-08-12T07:31:01;24.30;64.70
52973;DHT22;38837;48.916;2.336;2023-08-12T07:33:04;24.30;64.70
52973;DHT22;38837;48.916;2.336;2023-08-12T07:35:07;24.30;64.80
52973;DHT22;38837;48.916;2.336;2023-08-12T07:37:09;24.30;64.70
52973;DHT22;38837;48.916;2.336;2023-08-12T07:39:11;24.30;64.70
52973;DHT22;38837;48.916;2.336;2023-08-12T07:41:13;24.30;64.80
52973;DHT22;38837;48.916;2.336;2023-08-12T07:43:15;24.30;64.70
52973;DHT22;38837;48.916;2.336;2023-08-12T07:45:17;24.30;64.80
52973;DHT22;38837;48.916;2.336;2023-08-12T07:47:18;24.30;64.70
52973;DHT22;38837;48.916;2.336;2023-08-12T07:49:21;24.30;64.70
52973;DHT22;38837;48.916;2.336;2023-08-12T07:51:23;24.30;64.80
52973;DHT22;38837;48.916;2.336;2023-08-12T07:53:26;24.30;64.80
52973;DHT22;38837;48.916;2.336;2023-08-12T07:55:28;24.30;64.80
52973;DHT22;38837;48.916;2.336;2023-08-12T07:57:31;24.30;64.70
52973;DHT22;38837;48.916;2.336;2023-08-12T07:59:33;24.30;64.70
52973;DHT22;38837;48.916;2.336;2023-08-12T08:01:35;24.30;64.60
52973;DHT22;38837;48.916;2.336;2023-08-12T08:03:39;24.30;64.60
52973;DHT22;38837;48.916;2.336;2023-08-12T08:05:41;24.30;64.60
52973;DHT22;38837;48.916;2.336;2023-08-12T08:07:43;24.30;64.60
52973;DHT22;38837;48.916;2.336;2023-08-12T08:09:46;24.30;64.50
52973;DHT22;38837;48.916;2.336;2023-08-12T08:11:47;24.30;64.50
52973;DHT22;38837;48.916;2.336;2023-08-12T08:13:49;24.40;64.60
52973;DHT22;38837;48.916;2.336;2023-08-12T08:15:51;24.40;64.60
52973;DHT22;38837;48.916;2.336;2023-08-12T08:17:53;24.40;64.50
52973;DHT22;38837;48.916;2.336;2023-08-12T08:19:56;24.30;64.50
52973;DHT22;38837;48.916;2.336;2023-08-12T08:21:58;24.30;64.40
52973;DHT22;38837;48.916;2.336;2023-08-12T08:24:00;24.40;64.40
52973;DHT22;38837;48.916;2.336;2023-08-12T08:26:01;24.40;64.40
52973;DHT22;38837;48.916;2.336;2023-08-12T08:28:04;24.40;64.40
52973;DHT22;38837;48.916;2.336;2023-08-12T08:30:06;24.40;64.40
52973;DHT22;38837;48.916;2.336;2023-08-12T08:32:08;24.40;64.40
52973;DHT22;38837;48.916;2.336;2023-08-12T08:34:11;24.40;64.40
52973;DHT22;38837;48.916;2.336;2023-08-12T08:36:12;24.40;64.40
52973;DHT22;38837;48.916;2.336;2023-08-12T08:38:14;24.40;64.30
52973;DHT22;38837;48.916;2.336;2023-08-12T08:40:16;24.40;64.30
52973;DHT22;38837;48.916;2.336;2023-08-12T08:42:24;24.40;64.30
52973;DHT22;38837;48.916;2.336;2023-08-12T08:44:29;24.40;64.80
52973;DHT22;38837;48.916;2.336;2023-08-12T08:46:35;24.30;64.20
52973;DHT22;38837;48.916;2.336;2023-08-12T08:48:37;24.40;64.30
52973;DHT22;38837;48.916;2.336;2023-08-12T08:50:40;24.40;64.30
52973;DHT22;38837;48.916;2.336;2023-08-12T08:52:44;24.40;64.20
52973;DHT22;38837;48.916;2.336;2023-08-12T08:54:46;24.40;64.10
52973;DHT22;38837;48.916;2.336;2023-08-12T08:56:49;24.40;64.10
52973;DHT22;38837;48.916;2.336;2023-08-12T08:58:58;24.40;64.10
52973;DHT22;38837;48.916;2.336;2023-08-12T09:01:00;24.50;64.00
52973;DHT22;38837;48.916;2.336;2023-08-12T09:03:05;24.40;64.00
52973;DHT22;38837;48.916;2.336;2023-08-12T09:05:08;24.50;64.10
52973;DHT22;38837;48.916;2.336;2023-08-12T09:07:11;24.50;64.10
52973;DHT22;38837;48.916;2.336;2023-08-12T09:09:16;24.50;64.00
52973;DHT22;38837;48.916;2.336;2023-08-12T09:11:21;24.50;64.00
52973;DHT22;38837;48.916;2.336;2023-08-12T09:13:24;24.50;64.00
52973;DHT22;38837;48.916;2.336;2023-08-12T09:15:26;24.50;63.90
52973;DHT22;38837;48.916;2.336;2023-08-12T09:17:28;24.50;63.90
52973;DHT22;38837;48.916;2.336;2023-08-12T09:19:30;24.50;63.80
52973;DHT22;38837;48.916;2.336;2023-08-12T09:21:32;24.50;63.80
52973;DHT22;38837;48.916;2.336;2023-08-12T09:23:37;24.50;63.80
52973;DHT22;38837;48.916;2.336;2023-08-12T09:25:43;24.50;63.80
52973;DHT22;38837;48.916;2.336;2023-08-12T09:27:48;24.50;63.80
52973;DHT22;38837;48.916;2.336;2023-08-12T09:29:51;24.50;63.70
52973;DHT22;38837;48.916;2.336;2023-08-12T09:32:26;24.50;63.80
52973;DHT22;38837;48.916;2.336;2023-08-12T09:34:30;24.60;63.80
52973;DHT22;38837;48.916;2.336;2023-08-12T09:36:32;24.60;63.70
52973;DHT22;38837;48.916;2.336;2023-08-12T09:38:35;24.60;63.80
52973;DHT22;38837;48.916;2.336;2023-08-12T09:40:37;24.60;63.70
52973;DHT22;38837;48.916;2.336;2023-08-12T09:42:45;24.60;63.70
52973;DHT22;38837;48.916;2.336;2023-08-12T09:44:47;24.60;63.70
52973;DHT22;38837;48.916;2.336;2023-08-12T09:46:56;24.60;63.70
52973;DHT22;38837;48.916;2.336;2023-08-12T09:48:59;24.60;63.70
52973;DHT22;38837;48.916;2.336;2023-08-12T09:51:01;24.60;63.70
52973;DHT22;38837;48.916;2.336;2023-08-12T09:53:03;24.60;63.70
52973;DHT22;38837;48.916;2.336;2023-08-12T09:55:06;24.60;63.70
52973;DHT22;38837;48.916;2.336;2023-08-12T09:57:10;24.60;63.60
52973;DHT22;38837;48.916;2.336;2023-08-12T09:59:18;24.60;63.70
52973;DHT22;38837;48.916;2.336;2023-08-12T10:01:20;24.60;63.70
52973;DHT22;38837;48.916;2.336;2023-08-12T10:03:23;24.60;63.70
52973;DHT22;38837;48.916;2.336;2023-08-12T10:05:28;24.60;63.70
52973;DHT22;38837;48.916;2.336;2023-08-12T10:07:31;24.60;63.70
52973;DHT22;38837;48.916;2.336;2023-08-12T10:09:34;24.60;63.70
52973;DHT22;38837;48.916;2.336;2023-08-12T10:11:37;24.60;63.70
52973;DHT22;38837;48.916;2.336;2023-08-12T10:13:42;24.60;63.70
52973;DHT22;38837;48.916;2.336;2023-08-12T10:15:44;24.60;63.60
52973;DHT22;38837;48.916;2.336;2023-08-12T10:17:47;24.60;63.70
52973;DHT22;38837;48.916;2.336;2023-08-12T10:19:55;24.60;63.70
52973;DHT22;38837;48.916;2.336;2023-08-12T10:21:59;24.60;63.60
52973;DHT22;38837;48.916;2.336;2023-08-12T10:24:02;24.60;63.60
52973;DHT22;38837;48.916;2.336;2023-08-12T10:26:05;24.60;63.60
52973;DHT22;38837;48.916;2.336;2023-08-12T10:28:08;24.60;63.60
52973;DHT22;38837;48.916;2.336;2023-08-12T10:30:10;24.60;63.60
52973;DHT22;38837;48.916;2.336;2023-08-12T10:32:14;24.60;63.50
52973;DHT22;38837;48.916;2.336;2023-08-12T10:34:23;24.60;63.50
52973;DHT22;38837;48.916;2.336;2023-08-12T10:36:26;24.70;63.50
52973;DHT22;38837;48.916;2.336;2023-08-12T10:38:28;24.70;63.50
52973;DHT22;38837;48.916;2.336;2023-08-12T10:40:30;24.70;63.50
52973;DHT22;38837;48.916;2.336;2023-08-12T10:42:46;24.60;63.50
52973;DHT22;38837;48.916;2.336;2023-08-12T10:44:51;24.70;63.60
52973;DHT22;38837;48.916;2.336;2023-08-12T10:46:54;24.70;63.50
52973;DHT22;38837;48.916;2.336;2023-08-12T10:49:11;24.60;63.40
52973;DHT22;38837;48.916;2.336;2023-08-12T10:51:51;24.60;63.50
52973;DHT22;38837;48.916;2.336;2023-08-12T10:54:12;24.70;63.60
52973;DHT22;38837;48.916;2.336;2023-08-12T10:56:15;24.60;63.50
52973;DHT22;38837;48.916;2.336;2023-08-12T10:58:28;24.60;63.50
52973;DHT22;38837;48.916;2.336;2023-08-12T11:00:30;24.70;63.50
52973;DHT22;38837;48.916;2.336;2023-08-12T11:02:33;24.60;63.40
52973;DHT22;38837;48.916;2.336;2023-08-12T11:04:38;24.70;63.50
52973;DHT22;38837;48.916;2.336;2023-08-12T11:06:46;24.70;63.40
52973;DHT22;38837;48.916;2.336;2023-08-12T11:08:52;24.70;63.70
52973;DHT22;38837;48.916;2.336;2023-08-12T11:10:55;24.70;63.40
52973;DHT22;38837;48.916;2.336;2023-08-12T11:12:59;24.70;63.40
52973;DHT22;38837;48.916;2.336;2023-08-12T11:15:02;24.70;63.30
52973;DHT22;38837;48.916;2.336;2023-08-12T11:17:13;24.70;63.30
52973;DHT22;38837;48.916;2.336;2023-08-12T11:19:16;24.80;63.40
52973;DHT22;38837;48.916;2.336;2023-08-12T11:21:18;24.70;63.20
52973;DHT22;38837;48.916;2.336;2023-08-12T11:23:20;24.70;63.20
52973;DHT22;38837;48.916;2.336;2023-08-12T11:25:23;24.80;63.20
52973;DHT22;38837;48.916;2.336;2023-08-12T11:27:25;24.80;63.30
52973;DHT22;38837;48.916;2.336;2023-08-12T11:29:27;24.80;63.20
52973;DHT22;38837;48.916;2.336;2023-08-12T11:31:30;24.80;63.20
52973;DHT22;38837;48.916;2.336;2023-08-12T11:33:32;24.80;63.20
52973;DHT22;38837;48.916;2.336;2023-08-12T11:35:34;24.80;63.10
52973;DHT22;38837;48.916;2.336;2023-08-12T11:37:40;24.80;63.20
52973;DHT22;38837;48.916;2.336;2023-08-12T11:39:42;24.80;63.10
52973;DHT22;38837;48.916;2.336;2023-08-12T11:41:44;24.80;63.10
52973;DHT22;38837;48.916;2.336;2023-08-12T11:43:46;24.80;63.10
52973;DHT22;38837;48.916;2.336;2023-08-12T11:45:48;24.80;63.60
52973;DHT22;38837;48.916;2.336;2023-08-12T11:47:50;24.80;63.10
52973;DHT22;38837;48.916;2.336;2023-08-12T11:49:57;24.80;63.10
52973;DHT22;38837;48.916;2.336;2023-08-12T11:51:59;24.80;63.00
52973;DHT22;38837;48.916;2.336;2023-08-12T11:54:01;24.80;63.00
52973;DHT22;38837;48.916;2.336;2023-08-12T11:56:03;24.80;62.90
52973;DHT22;38837;48.916;2.336;2023-08-12T11:58:05;24.80;63.00
52973;DHT22;38837;48.916;2.336;2023-08-12T12:00:10;24.80;63.00
52973;DHT22;38837;48.916;2.336;2023-08-12T12:02:16;24.90;63.00
52973;DHT22;38837;48.916;2.336;2023-08-12T12:04:20;24.90;62.90
52973;DHT22;38837;48.916;2.336;2023-08-12T12:06:38;24.90;62.90
52973;DHT22;38837;48.916;2.336;2023-08-12T12:08:40;24.80;62.80
52973;DHT22;38837;48.916;2.336;2023-08-12T12:10:43;24.90;62.70
52973;DHT22;38837;48.916;2.336;2023-08-12T12:12:45;24.90;62.60
52973;DHT22;38837;48.916;2.336;2023-08-12T12:14:47;24.90;62.60
52973;DHT22;38837;48.916;2.336;2023-08-12T12:16:49;24.90;62.60
52973;DHT22;38837;48.916;2.336;2023-08-12T12:18:57;24.90;62.60
52973;DHT22;38837;48.916;2.336;2023-08-12T12:20:59;24.90;62.60
52973;DHT22;38837;48.916;2.336;2023-08-12T12:23:06;24.90;62.50
52973;DHT22;38837;48.916;2.336;2023-08-12T12:25:12;24.90;62.50
52973;DHT22;38837;48.916;2.336;2023-08-12T12:27:14;24.90;62.50
52973;DHT22;38837;48.916;2.336;2023-08-12T12:29:16;25.00;62.40
52973;DHT22;38837;48.916;2.336;2023-08-12T12:31:18;24.90;62.30
52973;DHT22;38837;48.916;2.336;2023-08-12T12:33:20;24.90;62.40
52973;DHT22;38837;48.916;2.336;2023-08-12T12:35:22;24.90;62.30
52973;DHT22;38837;48.916;2.336;2023-08-12T12:37:24;24.90;62.30
52973;DHT22;38837;48.916;2.336;2023-08-12T12:39:26;24.90;62.20
52973;DHT22;38837;48.916;2.336;2023-08-12T12:41:29;24.90;62.10
52973;DHT22;38837;48.916;2.336;2023-08-12T12:43:31;24.90;62.20
52973;DHT22;38837;48.916;2.336;2023-08-12T12:45:33;24.90;62.10
52973;DHT22;38837;48.916;2.336;2023-08-12T12:47:35;24.90;62.10
52973;DHT22;38837;48.916;2.336;2023-08-12T12:49:37;24.90;62.00
52973;DHT22;38837;48.916;2.336;2023-08-12T12:51:39;24.90;62.00
52973;DHT22;38837;48.916;2.336;2023-08-12T12:53:41;24.90;62.00
52973;DHT22;38837;48.916;2.336;2023-08-12T12:55:43;24.90;62.00
52973;DHT22;38837;48.916;2.336;2023-08-12T12:57:46;25.00;62.00